sensor_id;sensor_type;location;lat;lon;timestamp;P1;durP1;ratioP1;P2;durP2;ratioP2
40373;SDS011;26079;45.958;12.492;2023-09-18T00:02:07;9.52;;;8.15;;
40373;SDS011;26079;45.958;12.492;2023-09-18T00:04:33;8.60;;;7.63;;
40373;SDS011;26079;45.958;12.492;2023-09-18T00:06:59;10.88;;;8.43;;
40373;SDS011;26079;45.958;12.492;2023-09-18T00:09:25;10.32;;;7.85;;
40373;SDS011;26079;45.958;12.492;2023-09-18T00:11:50;8.80;;;8.10;;
40373;SDS011;26079;45.958;12.492;2023-09-18T00:14:17;9.63;;;7.30;;
40373;SDS011;26079;45.958;12.492;2023-09-18T00:16:43;12.25;;;7.95;;
40373;SDS011;26079;45.958;12.492;2023-09-18T00:19:09;7.93;;;7.28;;
40373;SDS011;26079;45.958;12.492;2023-09-18T00:21:35;9.68;;;7.35;;
40373;SDS011;26079;45.958;12.492;2023-09-18T00:24:02;8.82;;;7.50;;
40373;SDS011;26079;45.958;12.492;2023-09-18T00:26:28;10.05;;;8.07;;
40373;SDS011;26079;45.958;12.492;2023-09-18T00:28:54;8.25;;;7.45;;
40373;SDS011;26079;45.958;12.492;2023-09-18T00:31:19;9.93;;;7.75;;
40373;SDS011;26079;45.958;12.492;2023-09-18T00:33:45;9.95;;;8.18;;
40373;SDS011;26079;45.958;12.492;2023-09-18T00:36:11;9.30;;;8.07;;
40373;SDS011;26079;45.958;12.492;2023-09-18T00:38:37;7.60;;;6.88;;
40373;SDS011;26079;45.958;12.492;2023-09-18T00:41:02;7.85;;;7.05;;
40373;SDS011;26079;45.958;12.492;2023-09-18T00:43:28;7.13;;;6.57;;
40373;SDS011;26079;45.958;12.492;2023-09-18T00:45:54;7.90;;;7.22;;
40373;SDS011;26079;45.958;12.492;2023-09-18T00:48:19;7.88;;;7.18;;
40373;SDS011;26079;45.958;12.492;2023-09-18T00:50:47;9.50;;;6.85;;
40373;SDS011;26079;45.958;12.492;2023-09-18T00:53:15;8.85;;;7.38;;
40373;SDS011;26079;45.958;12.492;2023-09-18T00:55:45;7.80;;;7.18;;
40373;SDS011;26079;45.958;12.492;2023-09-18T00:58:11;9.60;;;6.80;;
40373;SDS011;26079;45.958;12.492;2023-09-18T01:00:37;8.77;;;7.13;;
40373;SDS011;26079;45.958;12.492;2023-09-18T01:03:03;8.48;;;6.72;;
40373;SDS011;26079;45.958;12.492;2023-09-18T01:05:33;8.60;;;7.20;;
40373;SDS011;26079;45.958;12.492;2023-09-18T01:07:59;8.32;;;7.53;;
40373;SDS011;26079;45.958;12.492;2023-09-18T01:10:25;7.72;;;6.88;;
40373;SDS011;26079;45.958;12.492;2023-09-18T01:18:02;9.60;;;8.57;;
40373;SDS011;26079;45.958;12.492;2023-09-18T01:20:28;8.20;;;7.50;;
40373;SDS011;26079;45.958;12.492;2023-09-18T01:22:54;8.73;;;7.00;;
40373;SDS011;26079;45.958;12.492;2023-09-18T01:25:19;10.82;;;8.15;;
40373;SDS011;26079;45.958;12.492;2023-09-18T01:27:45;8.38;;;7.65;;
40373;SDS011;26079;45.958;12.492;2023-09-18T01:30:11;8.23;;;7.43;;
40373;SDS011;26079;45.958;12.492;2023-09-18T01:32:38;11.05;;;7.63;;
40373;SDS011;26079;45.958;12.492;2023-09-18T01:35:05;9.30;;;8.15;;
40373;SDS011;26079;45.958;12.492;2023-09-18T01:37:33;7.47;;;6.78;;
40373;SDS011;26079;45.958;12.492;2023-09-18T01:40:00;11.02;;;7.93;;
40373;SDS011;26079;45.958;12.492;2023-09-18T01:42:31;7.80;;;7.10;;
40373;SDS011;26079;45.958;12.492;2023-09-18T01:44:57;8.70;;;7.80;;
40373;SDS011;26079;45.958;12.492;2023-09-18T01:47:23;8.13;;;7.53;;
40373;SDS011;26079;45.958;12.492;2023-09-18T01:49:49;9.38;;;7.47;;
40373;SDS011;26079;45.958;12.492;2023-09-18T01:52:15;10.73;;;7.53;;
40373;SDS011;26079;45.958;12.492;2023-09-18T01:54:40;8.85;;;7.85;;
40373;SDS011;26079;45.958;12.492;2023-09-18T01:57:06;16.13;;;9.07;;
40373;SDS011;26079;45.958;12.492;2023-09-18T01:59:32;8.63;;;7.80;;
40373;SDS011;26079;45.958;12.492;2023-09-18T02:01:59;12.75;;;7.85;;
40373;SDS011;26079;45.958;12.492;2023-09-18T02:04:25;7.43;;;6.72;;
40373;SDS011;26079;45.958;12.492;2023-09-18T02:06:52;8.60;;;7.47;;
40373;SDS011;26079;45.958;12.492;2023-09-18T02:09:18;19.05;;;7.18;;
40373;SDS011;26079;45.958;12.492;2023-09-18T02:11:46;9.02;;;7.30;;
40373;SDS011;26079;45.958;12.492;2023-09-18T02:14:13;10.95;;;7.35;;
40373;SDS011;26079;45.958;12.492;2023-09-18T02:16:39;14.50;;;7.75;;
40373;SDS011;26079;45.958;12.492;2023-09-18T02:19:06;10.07;;;7.15;;
40373;SDS011;26079;45.958;12.492;2023-09-18T02:21:33;9.95;;;7.75;;
40373;SDS011;26079;45.958;12.492;2023-09-18T02:23:59;12.23;;;7.20;;
40373;SDS011;26079;45.958;12.492;2023-09-18T02:26:25;7.78;;;6.90;;
40373;SDS011;26079;45.958;12.492;2023-09-18T02:28:52;11.13;;;7.35;;
40373;SDS011;26079;45.958;12.492;2023-09-18T02:31:18;8.25;;;7.55;;
40373;SDS011;26079;45.958;12.492;2023-09-18T02:33:45;10.50;;;7.47;;
40373;SDS011;26079;45.958;12.492;2023-09-18T02:36:11;6.90;;;6.30;;
40373;SDS011;26079;45.958;12.492;2023-09-18T02:38:37;7.68;;;6.65;;
40373;SDS011;26079;45.958;12.492;2023-09-18T02:41:03;8.13;;;7.32;;
40373;SDS011;26079;45.958;12.492;2023-09-18T02:43:29;10.45;;;7.70;;
40373;SDS011;26079;45.958;12.492;2023-09-18T02:45:54;9.68;;;7.70;;
40373;SDS011;26079;45.958;12.492;2023-09-18T02:48:20;13.10;;;7.70;;
40373;SDS011;26079;45.958;12.492;2023-09-18T02:50:46;8.65;;;6.97;;
40373;SDS011;26079;45.958;12.492;2023-09-18T02:53:16;13.10;;;8.65;;
40373;SDS011;26079;45.958;12.492;2023-09-18T02:55:44;8.02;;;7.22;;
40373;SDS011;26079;45.958;12.492;2023-09-18T02:58:10;11.43;;;7.25;;
40373;SDS011;26079;45.958;12.492;2023-09-18T03:00:45;12.10;;;6.95;;
40373;SDS011;26079;45.958;12.492;2023-09-18T03:03:13;8.88;;;7.25;;
40373;SDS011;26079;45.958;12.492;2023-09-18T03:05:40;9.20;;;7.80;;
40373;SDS011;26079;45.958;12.492;2023-09-18T03:08:06;9.10;;;7.13;;
40373;SDS011;26079;45.958;12.492;2023-09-18T03:10:37;8.80;;;7.18;;
40373;SDS011;26079;45.958;12.492;2023-09-18T03:13:05;7.65;;;7.05;;
40373;SDS011;26079;45.958;12.492;2023-09-18T03:15:32;7.70;;;7.10;;
40373;SDS011;26079;45.958;12.492;2023-09-18T03:17:58;8.88;;;7.30;;
40373;SDS011;26079;45.958;12.492;2023-09-18T03:20:28;9.90;;;7.57;;
40373;SDS011;26079;45.958;12.492;2023-09-18T03:22:54;11.05;;;7.32;;
40373;SDS011;26079;45.958;12.492;2023-09-18T03:25:22;7.80;;;7.10;;
40373;SDS011;26079;45.958;12.492;2023-09-18T03:27:50;7.65;;;7.03;;
40373;SDS011;26079;45.958;12.492;2023-09-18T03:30:18;7.43;;;6.82;;
40373;SDS011;26079;45.958;12.492;2023-09-18T03:32:44;8.65;;;7.75;;
40373;SDS011;26079;45.958;12.492;2023-09-18T03:35:10;7.85;;;7.20;;
40373;SDS011;26079;45.958;12.492;2023-09-18T03:37:52;7.17;;;6.60;;
40373;SDS011;26079;45.958;12.492;2023-09-18T03:40:22;7.75;;;7.00;;
40373;SDS011;26079;45.958;12.492;2023-09-18T03:42:48;6.82;;;5.97;;
40373;SDS011;26079;45.958;12.492;2023-09-18T03:45:14;9.38;;;6.85;;
40373;SDS011;26079;45.958;12.492;2023-09-18T03:47:42;11.13;;;7.40;;
40373;SDS011;26079;45.958;12.492;2023-09-18T03:50:11;7.30;;;6.60;;
40373;SDS011;26079;45.958;12.492;2023-09-18T03:52:38;13.18;;;7.53;;
40373;SDS011;26079;45.958;12.492;2023-09-18T03:55:05;10.25;;;6.93;;
40373;SDS011;26079;45.958;12.492;2023-09-18T03:57:31;8.88;;;7.50;;
40373;SDS011;26079;45.958;12.492;2023-09-18T03:59:57;10.30;;;8.77;;
40373;SDS011;26079;45.958;12.492;2023-09-18T04:02:24;14.68;;;13.10;;
40373;SDS011;26079;45.958;12.492;2023-09-18T04:04:51;11.45;;;9.95;;
40373;SDS011;26079;45.958;12.492;2023-09-18T04:07:17;16.65;;;12.65;;
40373;SDS011;26079;45.958;12.492;2023-09-18T04:09:44;12.35;;;8.95;;
40373;SDS011;26079;45.958;12.492;2023-09-18T04:12:10;9.65;;;8.65;;
40373;SDS011;26079;45.958;12.492;2023-09-18T04:14:36;15.77;;;13.63;;
40373;SDS011;26079;45.958;12.492;2023-09-18T04:17:02;21.52;;;15.80;;
40373;SDS011;26079;45.958;12.492;2023-09-18T04:19:28;33.15;;;13.65;;
40373;SDS011;26079;45.958;12.492;2023-09-18T04:21:53;25.08;;;13.10;;
40373;SDS011;26079;45.958;12.492;2023-09-18T04:24:19;10.48;;;9.38;;
40373;SDS011;26079;45.958;12.492;2023-09-18T04:26:45;10.10;;;8.40;;
40373;SDS011;26079;45.958;12.492;2023-09-18T04:29:11;12.73;;;8.57;;
40373;SDS011;26079;45.958;12.492;2023-09-18T04:31:37;11.95;;;10.25;;
40373;SDS011;26079;45.958;12.492;2023-09-18T04:34:05;37.42;;;25.60;;
40373;SDS011;26079;45.958;12.492;2023-09-18T04:36:31;57.85;;;37.22;;
40373;SDS011;26079;45.958;12.492;2023-09-18T04:38:57;52.45;;;37.97;;
40373;SDS011;26079;45.958;12.492;2023-09-18T04:41:23;59.75;;;41.45;;
40373;SDS011;26079;45.958;12.492;2023-09-18T04:43:48;42.42;;;35.53;;
40373;SDS011;26079;45.958;12.492;2023-09-18T04:46:15;39.60;;;30.13;;
40373;SDS011;26079;45.958;12.492;2023-09-18T04:48:41;18.77;;;16.20;;
40373;SDS011;26079;45.958;12.492;2023-09-18T04:51:09;9.50;;;8.30;;
40373;SDS011;26079;45.958;12.492;2023-09-18T04:53:35;12.75;;;8.48;;
40373;SDS011;26079;45.958;12.492;2023-09-18T04:56:01;7.85;;;6.97;;
40373;SDS011;26079;45.958;12.492;2023-09-18T04:58:28;7.28;;;6.57;;
40373;SDS011;26079;45.958;12.492;2023-09-18T05:00:54;7.07;;;6.40;;
40373;SDS011;26079;45.958;12.492;2023-09-18T05:03:21;7.38;;;6.68;;
40373;SDS011;26079;45.958;12.492;2023-09-18T05:05:47;8.00;;;6.25;;
40373;SDS011;26079;45.958;12.492;2023-09-18T05:08:12;10.60;;;7.72;;
40373;SDS011;26079;45.958;12.492;2023-09-18T05:10:38;7.45;;;6.80;;
40373;SDS011;26079;45.958;12.492;2023-09-18T05:13:04;7.95;;;6.28;;
40373;SDS011;26079;45.958;12.492;2023-09-18T05:15:30;7.32;;;6.35;;
40373;SDS011;26079;45.958;12.492;2023-09-18T05:17:56;9.00;;;7.72;;
40373;SDS011;26079;45.958;12.492;2023-09-18T05:20:23;8.85;;;7.15;;
40373;SDS011;26079;45.958;12.492;2023-09-18T05:22:50;7.55;;;6.80;;
40373;SDS011;26079;45.958;12.492;2023-09-18T05:25:20;11.52;;;6.88;;
40373;SDS011;26079;45.958;12.492;2023-09-18T05:27:47;7.88;;;7.18;;
40373;SDS011;26079;45.958;12.492;2023-09-18T05:30:20;7.85;;;7.05;;
40373;SDS011;26079;45.958;12.492;2023-09-18T05:32:53;11.00;;;7.65;;
40373;SDS011;26079;45.958;12.492;2023-09-18T05:35:19;7.55;;;6.78;;
40373;SDS011;26079;45.958;12.492;2023-09-18T05:37:46;7.30;;;6.65;;
40373;SDS011;26079;45.958;12.492;2023-09-18T05:40:12;6.90;;;6.30;;
40373;SDS011;26079;45.958;12.492;2023-09-18T05:42:39;11.10;;;7.50;;
40373;SDS011;26079;45.958;12.492;2023-09-18T05:45:09;7.78;;;6.05;;
40373;SDS011;26079;45.958;12.492;2023-09-18T05:47:36;8.73;;;7.32;;
40373;SDS011;26079;45.958;12.492;2023-09-18T05:50:03;8.13;;;6.82;;
40373;SDS011;26079;45.958;12.492;2023-09-18T05:52:40;7.25;;;6.45;;
40373;SDS011;26079;45.958;12.492;2023-09-18T05:55:06;7.90;;;6.75;;
40373;SDS011;26079;45.958;12.492;2023-09-18T05:57:35;9.77;;;6.88;;
40373;SDS011;26079;45.958;12.492;2023-09-18T06:00:01;7.70;;;6.53;;
40373;SDS011;26079;45.958;12.492;2023-09-18T06:02:27;6.82;;;6.20;;
40373;SDS011;26079;45.958;12.492;2023-09-18T06:04:54;8.25;;;6.72;;
40373;SDS011;26079;45.958;12.492;2023-09-18T06:07:22;7.43;;;6.82;;
40373;SDS011;26079;45.958;12.492;2023-09-18T06:09:51;8.88;;;7.95;;
40373;SDS011;26079;45.958;12.492;2023-09-18T06:12:17;10.05;;;8.13;;
40373;SDS011;26079;45.958;12.492;2023-09-18T06:14:43;8.60;;;6.85;;
40373;SDS011;26079;45.958;12.492;2023-09-18T06:17:10;10.93;;;7.57;;
40373;SDS011;26079;45.958;12.492;2023-09-18T06:19:35;8.18;;;7.35;;
40373;SDS011;26079;45.958;12.492;2023-09-18T06:22:01;8.60;;;6.72;;
40373;SDS011;26079;45.958;12.492;2023-09-18T06:24:27;14.82;;;8.68;;
40373;SDS011;26079;45.958;12.492;2023-09-18T06:26:53;11.38;;;8.57;;
40373;SDS011;26079;45.958;12.492;2023-09-18T06:29:19;8.38;;;7.57;;
40373;SDS011;26079;45.958;12.492;2023-09-18T06:31:45;11.48;;;9.05;;
40373;SDS011;26079;45.958;12.492;2023-09-18T06:34:11;14.15;;;9.25;;
40373;SDS011;26079;45.958;12.492;2023-09-18T06:36:37;10.95;;;8.00;;
40373;SDS011;26079;45.958;12.492;2023-09-18T06:39:03;8.77;;;7.90;;
40373;SDS011;26079;45.958;12.492;2023-09-18T06:41:29;10.40;;;9.13;;
40373;SDS011;26079;45.958;12.492;2023-09-18T06:43:54;14.02;;;8.70;;
40373;SDS011;26079;45.958;12.492;2023-09-18T06:46:22;17.45;;;10.18;;
40373;SDS011;26079;45.958;12.492;2023-09-18T06:48:47;12.85;;;9.32;;
40373;SDS011;26079;45.958;12.492;2023-09-18T06:51:16;10.13;;;9.15;;
40373;SDS011;26079;45.958;12.492;2023-09-18T06:53:42;12.02;;;9.98;;
40373;SDS011;26079;45.958;12.492;2023-09-18T06:56:08;10.68;;;9.68;;
40373;SDS011;26079;45.958;12.492;2023-09-18T06:58:34;11.02;;;8.98;;
40373;SDS011;26079;45.958;12.492;2023-09-18T07:01:00;13.45;;;9.13;;
40373;SDS011;26079;45.958;12.492;2023-09-18T07:03:26;19.27;;;11.50;;
40373;SDS011;26079;45.958;12.492;2023-09-18T07:05:51;17.70;;;12.40;;
40373;SDS011;26079;45.958;12.492;2023-09-18T07:08:17;15.23;;;10.48;;
40373;SDS011;26079;45.958;12.492;2023-09-18T07:10:48;12.95;;;10.88;;
40373;SDS011;26079;45.958;12.492;2023-09-18T07:13:15;12.38;;;11.05;;
40373;SDS011;26079;45.958;12.492;2023-09-18T07:15:41;10.95;;;9.82;;
40373;SDS011;26079;45.958;12.492;2023-09-18T07:18:06;10.70;;;9.60;;
40373;SDS011;26079;45.958;12.492;2023-09-18T07:20:32;10.50;;;9.25;;
40373;SDS011;26079;45.958;12.492;2023-09-18T07:22:58;12.95;;;8.85;;
40373;SDS011;26079;45.958;12.492;2023-09-18T07:25:24;11.05;;;9.95;;
40373;SDS011;26079;45.958;12.492;2023-09-18T07:27:49;13.13;;;10.65;;
40373;SDS011;26079;45.958;12.492;2023-09-18T07:30:15;11.85;;;10.55;;
40373;SDS011;26079;45.958;12.492;2023-09-18T07:32:41;17.98;;;10.77;;
40373;SDS011;26079;45.958;12.492;2023-09-18T07:35:08;14.77;;;10.82;;
40373;SDS011;26079;45.958;12.492;2023-09-18T07:37:34;13.25;;;10.85;;
40373;SDS011;26079;45.958;12.492;2023-09-18T07:40:01;13.68;;;11.23;;
40373;SDS011;26079;45.958;12.492;2023-09-18T07:42:30;15.80;;;12.05;;
40373;SDS011;26079;45.958;12.492;2023-09-18T07:44:55;14.13;;;12.85;;
40373;SDS011;26079;45.958;12.492;2023-09-18T07:47:22;21.98;;;13.10;;
40373;SDS011;26079;45.958;12.492;2023-09-18T07:49:48;17.73;;;12.85;;
40373;SDS011;26079;45.958;12.492;2023-09-18T07:52:14;15.65;;;12.45;;
40373;SDS011;26079;45.958;12.492;2023-09-18T07:54:40;18.92;;;12.20;;
40373;SDS011;26079;45.958;12.492;2023-09-18T07:57:06;21.75;;;13.07;;
40373;SDS011;26079;45.958;12.492;2023-09-18T07:59:34;14.75;;;10.32;;
40373;SDS011;26079;45.958;12.492;2023-09-18T08:02:01;11.27;;;10.18;;
40373;SDS011;26079;45.958;12.492;2023-09-18T08:04:27;19.88;;;11.30;;
40373;SDS011;26079;45.958;12.492;2023-09-18T08:06:55;13.95;;;10.63;;
40373;SDS011;26079;45.958;12.492;2023-09-18T08:09:21;11.07;;;9.95;;
40373;SDS011;26079;45.958;12.492;2023-09-18T08:11:47;13.02;;;11.65;;
40373;SDS011;26079;45.958;12.492;2023-09-18T08:14:15;13.32;;;11.02;;
40373;SDS011;26079;45.958;12.492;2023-09-18T08:16:41;13.68;;;11.52;;
40373;SDS011;26079;45.958;12.492;2023-09-18T08:19:07;12.77;;;10.60;;
40373;SDS011;26079;45.958;12.492;2023-09-18T08:21:32;16.73;;;10.23;;
40373;SDS011;26079;45.958;12.492;2023-09-18T08:23:58;11.05;;;10.05;;
40373;SDS011;26079;45.958;12.492;2023-09-18T08:26:24;12.90;;;10.82;;
40373;SDS011;26079;45.958;12.492;2023-09-18T08:28:52;14.20;;;10.75;;
40373;SDS011;26079;45.958;12.492;2023-09-18T08:31:18;11.48;;;9.57;;
40373;SDS011;26079;45.958;12.492;2023-09-18T08:33:43;14.75;;;11.20;;
40373;SDS011;26079;45.958;12.492;2023-09-18T08:36:09;11.05;;;9.65;;
40373;SDS011;26079;45.958;12.492;2023-09-18T08:38:35;11.55;;;10.35;;
40373;SDS011;26079;45.958;12.492;2023-09-18T08:41:01;12.32;;;10.07;;
40373;SDS011;26079;45.958;12.492;2023-09-18T08:43:28;12.73;;;10.70;;
40373;SDS011;26079;45.958;12.492;2023-09-18T08:45:56;20.75;;;10.30;;
40373;SDS011;26079;45.958;12.492;2023-09-18T08:48:26;15.18;;;11.52;;
40373;SDS011;26079;45.958;12.492;2023-09-18T08:51:03;13.50;;;10.52;;
40373;SDS011;26079;45.958;12.492;2023-09-18T08:53:31;14.20;;;9.95;;
40373;SDS011;26079;45.958;12.492;2023-09-18T08:55:58;15.50;;;10.50;;
40373;SDS011;26079;45.958;12.492;2023-09-18T08:58:27;18.58;;;9.70;;
40373;SDS011;26079;45.958;12.492;2023-09-18T09:00:57;18.27;;;9.77;;
40373;SDS011;26079;45.958;12.492;2023-09-18T09:03:23;14.23;;;9.75;;
40373;SDS011;26079;45.958;12.492;2023-09-18T09:05:49;12.73;;;9.18;;
40373;SDS011;26079;45.958;12.492;2023-09-18T09:08:15;11.50;;;8.75;;
40373;SDS011;26079;45.958;12.492;2023-09-18T09:10:43;15.35;;;8.60;;
40373;SDS011;26079;45.958;12.492;2023-09-18T09:13:09;12.05;;;10.10;;
40373;SDS011;26079;45.958;12.492;2023-09-18T09:15:43;13.00;;;9.07;;
40373;SDS011;26079;45.958;12.492;2023-09-18T09:18:11;12.25;;;9.63;;
40373;SDS011;26079;45.958;12.492;2023-09-18T09:20:37;17.27;;;9.95;;
40373;SDS011;26079;45.958;12.492;2023-09-18T09:23:04;13.55;;;10.52;;
40373;SDS011;26079;45.958;12.492;2023-09-18T09:25:34;16.20;;;11.23;;
40373;SDS011;26079;45.958;12.492;2023-09-18T09:28:04;10.55;;;9.23;;
40373;SDS011;26079;45.958;12.492;2023-09-18T09:30:31;12.73;;;8.45;;
40373;SDS011;26079;45.958;12.492;2023-09-18T09:32:58;10.32;;;9.30;;
40373;SDS011;26079;45.958;12.492;2023-09-18T09:35:25;19.65;;;10.63;;
40373;SDS011;26079;45.958;12.492;2023-09-18T09:37:53;9.18;;;8.20;;
40373;SDS011;26079;45.958;12.492;2023-09-18T09:40:22;10.68;;;9.70;;
40373;SDS011;26079;45.958;12.492;2023-09-18T09:42:50;16.83;;;9.30;;
40373;SDS011;26079;45.958;12.492;2023-09-18T09:45:25;16.40;;;9.60;;
40373;SDS011;26079;45.958;12.492;2023-09-18T09:47:55;10.48;;;9.45;;
40373;SDS011;26079;45.958;12.492;2023-09-18T09:50:22;14.98;;;8.27;;
40373;SDS011;26079;45.958;12.492;2023-09-18T09:52:50;11.23;;;9.27;;
40373;SDS011;26079;45.958;12.492;2023-09-18T09:55:18;14.35;;;10.75;;
40373;SDS011;26079;45.958;12.492;2023-09-18T09:57:55;15.20;;;11.00;;
40373;SDS011;26079;45.958;12.492;2023-09-18T10:00:25;19.45;;;10.85;;
40373;SDS011;26079;45.958;12.492;2023-09-18T10:03:16;11.60;;;9.98;;
40373;SDS011;26079;45.958;12.492;2023-09-18T10:05:44;10.95;;;9.73;;
40373;SDS011;26079;45.958;12.492;2023-09-18T10:08:12;15.90;;;10.00;;
40373;SDS011;26079;45.958;12.492;2023-09-18T10:10:50;10.93;;;9.20;;
40373;SDS011;26079;45.958;12.492;2023-09-18T10:13:28;12.48;;;10.57;;
40373;SDS011;26079;45.958;12.492;2023-09-18T10:16:01;10.32;;;9.35;;
40373;SDS011;26079;45.958;12.492;2023-09-18T10:21:09;14.40;;;11.13;;
40373;SDS011;26079;45.958;12.492;2023-09-18T10:27:00;14.80;;;10.63;;
40373;SDS011;26079;45.958;12.492;2023-09-18T10:29:29;16.45;;;10.32;;
40373;SDS011;26079;45.958;12.492;2023-09-18T10:31:57;16.23;;;11.00;;
40373;SDS011;26079;45.958;12.492;2023-09-18T10:34:24;11.68;;;10.38;;
40373;SDS011;26079;45.958;12.492;2023-09-18T10:36:53;17.30;;;11.07;;
40373;SDS011;26079;45.958;12.492;2023-09-18T10:39:20;14.95;;;12.85;;
40373;SDS011;26079;45.958;12.492;2023-09-18T10:41:52;17.77;;;12.88;;
40373;SDS011;26079;45.958;12.492;2023-09-18T10:44:19;16.35;;;11.63;;
40373;SDS011;26079;45.958;12.492;2023-09-18T10:46:48;16.77;;;12.45;;
40373;SDS011;26079;45.958;12.492;2023-09-18T10:49:17;17.40;;;11.38;;
40373;SDS011;26079;45.958;12.492;2023-09-18T10:51:44;15.20;;;11.35;;
40373;SDS011;26079;45.958;12.492;2023-09-18T10:54:14;15.02;;;12.10;;
40373;SDS011;26079;45.958;12.492;2023-09-18T10:56:42;17.75;;;11.70;;
40373;SDS011;26079;45.958;12.492;2023-09-18T10:59:19;19.95;;;12.45;;
40373;SDS011;26079;45.958;12.492;2023-09-18T11:01:46;17.45;;;11.85;;
40373;SDS011;26079;45.958;12.492;2023-09-18T11:04:13;13.27;;;10.20;;
40373;SDS011;26079;45.958;12.492;2023-09-18T11:12:03;11.65;;;10.63;;
40373;SDS011;26079;45.958;12.492;2023-09-18T11:17:30;11.68;;;10.55;;
40373;SDS011;26079;45.958;12.492;2023-09-18T11:25:28;11.95;;;10.60;;
40373;SDS011;26079;45.958;12.492;2023-09-18T11:27:55;11.85;;;10.60;;
40373;SDS011;26079;45.958;12.492;2023-09-18T11:30:21;12.85;;;10.18;;
40373;SDS011;26079;45.958;12.492;2023-09-18T11:32:47;13.07;;;11.38;;
40373;SDS011;26079;45.958;12.492;2023-09-18T11:35:20;11.55;;;10.43;;
40373;SDS011;26079;45.958;12.492;2023-09-18T11:37:46;12.10;;;10.88;;
40373;SDS011;26079;45.958;12.492;2023-09-18T11:40:45;14.65;;;9.68;;
40373;SDS011;26079;45.958;12.492;2023-09-18T11:43:25;11.25;;;10.15;;
40373;SDS011;26079;45.958;12.492;2023-09-18T11:45:54;16.48;;;10.00;;
40373;SDS011;26079;45.958;12.492;2023-09-18T11:48:22;15.10;;;12.60;;
40373;SDS011;26079;45.958;12.492;2023-09-18T11:50:51;12.32;;;11.23;;
40373;SDS011;26079;45.958;12.492;2023-09-18T11:53:17;12.93;;;11.45;;
40373;SDS011;26079;45.958;12.492;2023-09-18T11:55:44;13.20;;;10.68;;
40373;SDS011;26079;45.958;12.492;2023-09-18T11:58:13;12.45;;;10.95;;
40373;SDS011;26079;45.958;12.492;2023-09-18T12:00:39;12.60;;;9.63;;
40373;SDS011;26079;45.958;12.492;2023-09-18T12:05:50;16.02;;;10.68;;
40373;SDS011;26079;45.958;12.492;2023-09-18T12:08:18;11.27;;;10.13;;
40373;SDS011;26079;45.958;12.492;2023-09-18T12:10:44;10.85;;;9.73;;
40373;SDS011;26079;45.958;12.492;2023-09-18T12:13:14;10.43;;;8.80;;
40373;SDS011;26079;45.958;12.492;2023-09-18T12:15:40;11.70;;;9.90;;
40373;SDS011;26079;45.958;12.492;2023-09-18T12:18:07;12.15;;;9.35;;
40373;SDS011;26079;45.958;12.492;2023-09-18T12:20:34;13.82;;;9.65;;
40373;SDS011;26079;45.958;12.492;2023-09-18T12:23:01;9.82;;;8.82;;
40373;SDS011;26079;45.958;12.492;2023-09-18T12:25:27;11.57;;;10.48;;
40373;SDS011;26079;45.958;12.492;2023-09-18T12:27:53;12.20;;;10.38;;
40373;SDS011;26079;45.958;12.492;2023-09-18T12:30:21;17.15;;;9.90;;
40373;SDS011;26079;45.958;12.492;2023-09-18T12:32:47;9.95;;;9.10;;
40373;SDS011;26079;45.958;12.492;2023-09-18T12:35:14;11.48;;;10.13;;
40373;SDS011;26079;45.958;12.492;2023-09-18T12:37:41;13.27;;;9.02;;
40373;SDS011;26079;45.958;12.492;2023-09-18T12:40:52;14.27;;;9.98;;
40373;SDS011;26079;45.958;12.492;2023-09-18T12:42:54;12.75;;;8.75;;
40373;SDS011;26079;45.958;12.492;2023-09-18T12:45:22;13.00;;;8.25;;
40373;SDS011;26079;45.958;12.492;2023-09-18T12:47:49;10.98;;;8.70;;
40373;SDS011;26079;45.958;12.492;2023-09-18T12:50:15;11.80;;;9.40;;
40373;SDS011;26079;45.958;12.492;2023-09-18T12:52:41;10.52;;;9.57;;
40373;SDS011;26079;45.958;12.492;2023-09-18T12:55:07;12.35;;;9.80;;
40373;SDS011;26079;45.958;12.492;2023-09-18T12:57:33;10.23;;;9.00;;
40373;SDS011;26079;45.958;12.492;2023-09-18T12:59:59;10.88;;;9.00;;
40373;SDS011;26079;45.958;12.492;2023-09-18T13:02:35;9.73;;;8.43;;
40373;SDS011;26079;45.958;12.492;2023-09-18T13:05:01;10.35;;;9.35;;
40373;SDS011;26079;45.958;12.492;2023-09-18T13:07:28;19.92;;;8.90;;
40373;SDS011;26079;45.958;12.492;2023-09-18T13:10:02;15.82;;;10.43;;
40373;SDS011;26079;45.958;12.492;2023-09-18T13:12:49;10.80;;;9.63;;
40373;SDS011;26079;45.958;12.492;2023-09-18T13:15:27;14.02;;;10.70;;
40373;SDS011;26079;45.958;12.492;2023-09-18T13:17:54;12.05;;;10.93;;
40373;SDS011;26079;45.958;12.492;2023-09-18T13:20:26;10.75;;;9.75;;
40373;SDS011;26079;45.958;12.492;2023-09-18T13:23:02;11.57;;;9.57;;
40373;SDS011;26079;45.958;12.492;2023-09-18T13:25:39;14.90;;;9.27;;
40373;SDS011;26079;45.958;12.492;2023-09-18T13:28:09;19.35;;;10.75;;
40373;SDS011;26079;45.958;12.492;2023-09-18T13:30:36;14.82;;;9.82;;
40373;SDS011;26079;45.958;12.492;2023-09-18T13:33:11;11.40;;;9.63;;
40373;SDS011;26079;45.958;12.492;2023-09-18T13:35:42;13.23;;;8.68;;
40373;SDS011;26079;45.958;12.492;2023-09-18T13:38:08;13.23;;;9.70;;
40373;SDS011;26079;45.958;12.492;2023-09-18T13:40:36;15.73;;;9.55;;
40373;SDS011;26079;45.958;12.492;2023-09-18T13:43:05;14.70;;;9.93;;
40373;SDS011;26079;45.958;12.492;2023-09-18T13:45:36;10.07;;;9.07;;
40373;SDS011;26079;45.958;12.492;2023-09-18T13:48:05;11.73;;;9.63;;
40373;SDS011;26079;45.958;12.492;2023-09-18T13:50:31;9.77;;;8.75;;
40373;SDS011;26079;45.958;12.492;2023-09-18T13:52:58;10.45;;;8.73;;
40373;SDS011;26079;45.958;12.492;2023-09-18T13:55:25;9.02;;;8.15;;
40373;SDS011;26079;45.958;12.492;2023-09-18T13:57:51;13.93;;;8.23;;
40373;SDS011;26079;45.958;12.492;2023-09-18T14:00:16;12.80;;;9.20;;
40373;SDS011;26079;45.958;12.492;2023-09-18T14:02:42;8.55;;;7.75;;
40373;SDS011;26079;45.958;12.492;2023-09-18T14:05:08;16.85;;;8.73;;
40373;SDS011;26079;45.958;12.492;2023-09-18T14:07:36;15.85;;;8.75;;
40373;SDS011;26079;45.958;12.492;2023-09-18T14:10:06;12.85;;;8.73;;
40373;SDS011;26079;45.958;12.492;2023-09-18T14:12:35;12.38;;;9.85;;
40373;SDS011;26079;45.958;12.492;2023-09-18T14:15:01;11.05;;;9.15;;
40373;SDS011;26079;45.958;12.492;2023-09-18T14:17:28;12.05;;;8.77;;
40373;SDS011;26079;45.958;12.492;2023-09-18T14:19:56;9.25;;;8.05;;
40373;SDS011;26079;45.958;12.492;2023-09-18T14:22:21;12.30;;;7.90;;
40373;SDS011;26079;45.958;12.492;2023-09-18T14:24:47;10.70;;;8.35;;
40373;SDS011;26079;45.958;12.492;2023-09-18T14:27:13;10.48;;;8.35;;
40373;SDS011;26079;45.958;12.492;2023-09-18T14:29:39;10.45;;;8.93;;
40373;SDS011;26079;45.958;12.492;2023-09-18T14:32:05;12.48;;;8.48;;
40373;SDS011;26079;45.958;12.492;2023-09-18T14:34:33;20.38;;;9.25;;
40373;SDS011;26079;45.958;12.492;2023-09-18T14:37:00;15.38;;;8.52;;
40373;SDS011;26079;45.958;12.492;2023-09-18T14:39:29;19.08;;;9.85;;
40373;SDS011;26079;45.958;12.492;2023-09-18T14:41:56;13.15;;;10.55;;
40373;SDS011;26079;45.958;12.492;2023-09-18T14:44:21;12.25;;;10.43;;
40373;SDS011;26079;45.958;12.492;2023-09-18T14:46:47;9.98;;;8.73;;
40373;SDS011;26079;45.958;12.492;2023-09-18T14:49:14;11.52;;;10.27;;
40373;SDS011;26079;45.958;12.492;2023-09-18T14:51:39;10.85;;;8.98;;